Time;durP1;ratioP1;P1;durP2;ratioP2;P2;SDS_P1;SDS_P2;PMS_P1;PMS_P2;Temp;Humidity;BMP_temperature;BMP_pressure;BME280_temperature;BME280_humidity;BME280_pressure;Samples;Min_cycle;Max_cycle;Signal;HPM_P1;HPM_P2
2021/08/31 00:00:55;;;;;;;28.25;20.37;;;;;;;21.73;71.72;99460.87;1732883;82;21047;-62
2021/08/31 00:03:22;;;;;;;27.90;19.70;;;;;;;21.72;71.72;99452.44;1737135;82;20960;-61
2021/08/31 00:05:49;;;;;;;31.25;19.62;;;;;;;21.71;71.67;99460.36;1737412;82;21095;-61
2021/08/31 00:08:16;;;;;;;28.35;19.87;;;;;;;21.70;71.65;99460.93;1734281;82;21095;-61
2021/08/31 00:10:44;;;;;;;;;;;;;;;21.72;71.65;99463.91;1734950;81;21490;-61
2021/08/31 00:13:11;;;;;;;24.80;18.07;;;;;;;21.71;71.59;99461.72;1734398;81;20462;-61
2021/08/31 00:15:38;;;;;;;25.92;19.00;;;;;;;21.62;71.60;99462.25;1738373;82;20987;-61
2021/08/31 00:18:06;;;;;;;24.95;18.32;;;;;;;21.55;71.75;99464.62;1735172;82;21568;-62
2021/08/31 00:20:33;;;;;;;26.70;17.82;;;;;;;21.48;71.79;99460.94;1738427;82;20928;-61
2021/08/31 00:23:00;;;;;;;29.37;18.90;;;;;;;21.44;71.92;99459.98;1735222;82;21546;-62
2021/08/31 00:25:26;;;;;;;25.70;18.75;;;;;;;21.42;71.97;99454.84;1734397;82;20952;-61
2021/08/31 00:27:53;;;;;;;29.45;19.25;;;;;;;21.45;71.96;99456.94;1735979;81;20945;-62
2021/08/31 00:30:20;;;;;;;29.40;20.25;;;;;;;21.48;71.90;99461.77;1734104;82;20965;-61
2021/08/31 00:32:47;;;;;;;33.20;19.82;;;;;;;21.48;71.91;99452.22;1734718;82;20963;-61
2021/08/31 00:35:14;;;;;;;34.98;22.42;;;;;;;21.50;71.95;99451.91;1736212;82;21148;-61
2021/08/31 00:37:41;;;;;;;29.05;20.50;;;;;;;21.55;71.85;99453.72;1735086;82;20921;-61
2021/08/31 00:40:09;;;;;;;33.33;21.17;;;;;;;21.59;71.75;99459.59;1735487;82;21000;-62
2021/08/31 00:42:36;;;;;;;33.98;22.73;;;;;;;21.60;71.64;99454.93;1734164;82;20908;-61
2021/08/31 00:45:04;;;;;;;31.45;22.45;;;;;;;21.60;71.61;99459.02;1739540;82;21051;-61
2021/08/31 00:47:31;;;;;;;34.40;22.93;;;;;;;21.60;71.55;99455.75;1735297;82;21153;-62
2021/08/31 00:49:58;;;;;;;34.30;23.40;;;;;;;21.61;71.51;99450.55;1734960;82;20976;-60
2021/08/31 00:52:28;;;;;;;39.98;23.25;;;;;;;21.58;71.54;99458.54;1735257;82;21007;-61
2021/08/31 00:54:54;;;;;;;34.20;23.75;;;;;;;21.56;71.56;99460.22;1734990;82;21047;-60
2021/08/31 00:57:21;;;;;;;36.00;24.25;;;;;;;21.51;71.63;99462.52;1732294;82;20997;-60
2021/08/31 00:59:48;;;;;;;35.73;24.95;;;;;;;21.47;71.86;99463.44;1737601;82;21128;-60
2021/08/31 01:02:15;;;;;;;37.30;25.45;;;;;;;21.46;71.97;99464.55;1735268;82;21023;-60
2021/08/31 01:04:43;;;;;;;32.08;23.22;;;;;;;21.45;72.08;99466.48;1739662;82;21470;-60
2021/08/31 01:07:10;;;;;;;36.90;24.55;;;;;;;21.46;72.05;99470.80;1734967;82;20988;-60
2021/08/31 01:09:37;;;;;;;35.55;24.15;;;;;;;21.47;72.06;99464.80;1735201;82;21019;-61
2021/08/31 01:12:07;;;;;;;34.13;23.55;;;;;;;21.49;72.08;99468.01;1734365;82;21163;-61
2021/08/31 01:14:33;;;;;;;32.83;23.77;;;;;;;21.49;72.02;99463.34;1732560;82;21406;-61
2021/08/31 01:17:01;;;;;;;34.45;24.63;;;;;;;21.50;72.02;99463.63;1732966;82;21581;-61
2021/08/31 01:19:31;;;;;;;39.42;25.10;;;;;;;21.48;71.89;99463.12;1735096;82;21040;-61
2021/08/31 01:22:07;;;;;;;36.93;24.90;;;;;;;21.45;72.00;99456.11;1733400;82;21032;-61
2021/08/31 01:24:36;;;;;;;35.40;25.15;;;;;;;21.44;72.07;99462.13;1734286;82;21711;-62
2021/08/31 01:27:04;;;;;;;42.67;25.32;;;;;;;21.45;72.08;99461.56;1733200;82;21034;-62
2021/08/31 01:29:31;;;;;;;36.58;25.48;;;;;;;21.47;72.04;99463.44;1737509;82;21432;-60
2021/08/31 01:31:58;;;;;;;41.58;25.97;;;;;;;21.45;71.98;99458.30;1736587;82;21052;-60
2021/08/31 01:34:25;;;;;;;40.12;24.60;;;;;;;21.45;71.93;99459.66;1734172;82;21397;-61
2021/08/31 01:36:52;;;;;;;42.93;25.55;;;;;;;21.46;71.89;99463.98;1736366;82;21148;-61
2021/08/31 01:39:19;;;;;;;39.93;24.93;;;;;;;21.46;71.85;99465.34;1736459;82;21529;-61
2021/08/31 01:41:47;;;;;;;39.67;24.57;;;;;;;21.46;71.83;99474.09;1737573;82;21071;-63
2021/08/31 01:44:13;;;;;;;38.15;23.87;;;;;;;21.41;71.84;99478.33;1733113;82;21111;-61
2021/08/31 01:46:42;;;;;;;36.53;24.75;;;;;;;21.33;71.93;99478.50;1733414;82;20931;-61
2021/08/31 01:49:09;;;;;;;42.60;24.45;;;;;;;21.29;72.12;99476.14;1734244;82;21563;-61
2021/08/31 01:51:36;;;;;;;34.05;21.77;;;;;;;21.23;72.14;99474.13;1734143;82;21026;-63
2021/08/31 01:54:03;;;;;;;41.50;24.15;;;;;;;21.18;72.19;99476.39;1734792;82;21474;-60
2021/08/31 01:56:30;;;;;;;39.85;24.35;;;;;;;21.12;72.27;99475.48;1735188;82;21000;-60
2021/08/31 01:58:58;;;;;;;39.60;22.77;;;;;;;21.08;72.42;99477.22;1735222;82;21500;-60
2021/08/31 02:01:25;;;;;;;38.63;21.73;;;;;;;21.08;72.43;99484.85;1736686;82;21985;-60
2021/08/31 02:03:53;;;;;;;38.15;21.50;;;;;;;21.05;72.45;99483.28;1735024;82;21400;-61
2021/08/31 02:06:21;;;;;;;36.30;21.73;;;;;;;21.00;72.40;99473.32;1733330;82;21540;-61
2021/08/31 02:08:48;;;;;;;34.37;20.57;;;;;;;20.96;72.37;99477.77;1733401;82;21066;-61
2021/08/31 02:11:15;;;;;;;36.85;20.75;;;;;;;20.91;72.21;99477.34;1734179;82;21429;-61
2021/08/31 02:13:42;;;;;;;40.98;20.50;;;;;;;20.85;72.20;99484.56;1734084;82;21756;-61
2021/08/31 02:16:09;;;;;;;39.23;20.27;;;;;;;20.79;72.18;99481.97;1737718;82;20952;-61
2021/08/31 02:18:40;;;;;;;37.00;20.55;;;;;;;20.74;72.15;99482.08;1735301;82;21043;-62
2021/08/31 02:21:08;;;;;;;40.30;19.98;;;;;;;20.70;72.07;99482.47;1732991;82;21051;-62
2021/08/31 02:23:38;;;;;;;41.73;20.43;;;;;;;20.63;72.12;99481.48;1734557;82;21003;-62
2021/08/31 02:26:05;;;;;;;38.40;20.30;;;;;;;20.60;72.22;99483.46;1737867;82;21130;-61
2021/08/31 02:28:34;;;;;;;36.17;20.25;;;;;;;20.59;72.16;99485.13;1735089;82;21419;-60
2021/08/31 02:31:02;;;;;;;50.55;22.98;;;;;;;20.58;72.11;99487.59;1735156;82;21653;-62
2021/08/31 02:33:28;;;;;;;42.03;22.13;;;;;;;20.55;72.10;99490.36;1734572;82;20984;-61
2021/08/31 02:35:57;;;;;;;37.42;21.35;;;;;;;20.52;72.17;99498.34;1735147;82;20992;-61
2021/08/31 02:38:24;;;;;;;34.98;20.40;;;;;;;20.47;72.24;99496.55;1734703;82;21217;-60
2021/08/31 02:40:51;;;;;;;41.98;21.77;;;;;;;20.42;72.26;99495.28;1735377;82;21510;-61
2021/08/31 02:43:19;;;;;;;38.10;21.43;;;;;;;20.32;72.31;99490.87;1735275;82;21016;-61
2021/08/31 02:45:46;;;;;;;32.45;19.27;;;;;;;20.22;72.44;99491.89;1733400;82;21605;-60
2021/08/31 02:48:13;;;;;;;40.83;19.75;;;;;;;20.16;72.64;99495.03;1731978;82;21034;-61
2021/08/31 02:50:40;;;;;;;38.38;20.35;;;;;;;20.10;72.80;99495.69;1718034;82;21132;-61
2021/08/31 02:53:07;;;;;;;36.77;18.95;;;;;;;20.07;72.95;99496.30;1699471;83;21055;-60
2021/08/31 02:55:34;;;;;;;30.40;17.75;;;;;;;20.07;72.85;99495.73;1700636;83;21600;-61
2021/08/31 02:58:01;;;;;;;33.10;18.32;;;;;;;20.04;72.85;99502.34;1700453;83;20952;-61
2021/08/31 03:00:30;;;;;;;30.85;17.40;;;;;;;20.01;72.97;99501.55;1703575;83;21067;-61
2021/08/31 03:02:58;;;;;;;31.90;18.55;;;;;;;20.00;72.96;99504.05;1701623;83;21151;-63
2021/08/31 03:05:25;;;;;;;32.25;17.57;;;;;;;19.98;72.98;99507.06;1700917;83;21422;-61
2021/08/31 03:07:52;;;;;;;29.07;17.47;;;;;;;19.96;72.81;99507.91;1705414;83;20940;-60
2021/08/31 03:10:21;;;;;;;31.10;18.17;;;;;;;19.90;72.80;99506.39;1701443;83;21012;-61
2021/08/31 03:12:48;;;;;;;32.95;17.98;;;;;;;19.84;72.88;99510.33;1701072;83;21088;-61
2021/08/31 03:15:16;;;;;;;30.12;17.25;;;;;;;19.77;72.96;99514.75;1702879;83;25100;-61
2021/08/31 03:17:43;;;;;;;31.23;18.98;;;;;;;19.72;73.12;99519.73;1699810;83;21459;-61
2021/08/31 03:20:11;;;;;;;32.87;19.23;;;;;;;19.63;73.31;99519.38;1700968;83;21568;-62
2021/08/31 03:22:38;;;;;;;35.33;20.12;;;;;;;19.57;73.60;99522.73;1701411;83;21028;-61
2021/08/31 03:25:08;;;;;;;29.32;19.05;;;;;;;19.54;73.73;99523.34;1700606;82;21016;-61
2021/08/31 03:27:35;;;;;;;29.55;18.12;;;;;;;19.57;73.83;99522.18;1698558;83;21102;-62
2021/08/31 03:30:06;;;;;;;33.53;17.57;;;;;;;19.61;73.74;99527.84;1703319;83;21020;-61
2021/08/31 03:32:33;;;;;;;30.02;17.67;;;;;;;19.63;73.66;99526.19;1701554;83;21012;-62
2021/08/31 03:35:00;;;;;;;31.52;18.17;;;;;;;19.62;73.66;99534.88;1701630;83;21020;-61
2021/08/31 03:37:27;;;;;;;27.25;17.73;;;;;;;19.58;73.63;99537.92;1699909;83;20992;-62
2021/08/31 03:39:54;;;;;;;28.32;16.97;;;;;;;19.52;73.74;99543.20;1699457;83;21125;-60
2021/08/31 03:42:21;;;;;;;27.27;15.90;;;;;;;19.49;73.73;99547.88;1701573;83;21017;-61
2021/08/31 03:44:48;;;;;;;30.00;17.45;;;;;;;19.44;73.83;99546.05;1701564;83;21001;-61
2021/08/31 03:47:15;;;;;;;27.65;16.12;;;;;;;19.37;74.01;99547.77;1699726;83;21086;-61
2021/08/31 03:49:42;;;;;;;26.15;15.70;;;;;;;19.36;74.03;99546.72;1701490;83;20957;-61
2021/08/31 03:52:10;;;;;;;24.47;16.27;;;;;;;19.35;74.02;99550.56;1710618;83;25671;-61
2021/08/31 03:54:37;;;;;;;25.88;16.42;;;;;;;19.32;74.06;99553.88;1707896;83;20986;-62
2021/08/31 03:57:05;;;;;;;28.90;17.48;;;;;;;19.22;74.17;99554.83;1708675;83;21047;-61
2021/08/31 03:59:32;;;;;;;29.10;15.70;;;;;;;19.19;74.42;99559.50;1711409;83;21536;-60
2021/08/31 04:01:59;;;;;;;25.85;16.65;;;;;;;19.22;74.46;99558.34;1709453;83;21031;-60
2021/08/31 04:04:26;;;;;;;28.10;16.87;;;;;;;19.24;74.35;99562.95;1707351;83;21079;-61
2021/08/31 04:06:56;;;;;;;26.00;15.78;;;;;;;19.29;74.29;99556.63;1707725;83;21464;-63
2021/08/31 04:09:23;;;;;;;26.17;15.98;;;;;;;19.34;74.21;99562.52;1710015;83;21038;-60
2021/08/31 04:11:52;;;;;;;28.83;15.55;;;;;;;19.39;74.07;99561.89;1708430;82;21549;-61
2021/08/31 04:14:18;;;;;;;25.55;15.35;;;;;;;19.47;73.82;99567.76;1708568;83;21047;-61
2021/08/31 04:16:45;;;;;;;26.93;15.88;;;;;;;19.52;73.65;99569.84;1710648;83;21010;-61
2021/08/31 04:19:12;;;;;;;23.12;15.30;;;;;;;19.57;73.33;99563.52;1709349;83;20920;-63
2021/08/31 04:21:41;;;;;;;25.90;15.32;;;;;;;19.58;73.22;99563.75;1709087;83;27558;-61
2021/08/31 04:24:08;;;;;;;26.40;15.43;;;;;;;19.59;72.97;99564.80;1709366;83;21038;-61
2021/08/31 04:26:35;;;;;;;23.43;15.27;;;;;;;19.55;72.99;99570.61;1707920;83;21051;-61
2021/08/31 04:29:02;;;;;;;28.32;15.90;;;;;;;19.52;73.14;99568.48;1708991;83;21093;-61
2021/08/31 04:31:30;;;;;;;23.65;15.00;;;;;;;19.54;73.16;99568.98;1710155;83;28487;-61
2021/08/31 04:33:58;;;;;;;24.72;14.95;;;;;;;19.56;73.09;99573.56;1709474;83;21576;-62
2021/08/31 04:36:24;;;;;;;25.02;15.30;;;;;;;19.52;73.19;99575.81;1708321;83;21023;-61
2021/08/31 04:38:51;;;;;;;26.45;14.45;;;;;;;19.53;73.22;99574.16;1709421;83;21007;-61
2021/08/31 04:41:18;;;;;;;25.30;14.90;;;;;;;19.53;73.08;99578.23;1707305;83;21222;-62
2021/08/31 04:43:45;;;;;;;22.67;13.85;;;;;;;19.56;73.10;99573.56;1707251;83;21071;-62
2021/08/31 04:46:12;;;;;;;26.35;14.15;;;;;;;19.62;72.85;99572.92;1710525;83;21007;-62
2021/08/31 04:48:39;;;;;;;21.97;13.68;;;;;;;19.67;72.71;99571.50;1708616;82;20983;-60
2021/08/31 04:51:06;;;;;;;19.75;13.00;;;;;;;19.73;72.54;99564.86;1718386;82;21007;-61
2021/08/31 04:53:33;;;;;;;18.85;13.35;;;;;;;19.79;72.27;99566.97;1732491;82;22274;-61
2021/08/31 04:56:00;;;;;;;17.30;12.75;;;;;;;19.81;72.10;99570.19;1735343;82;20979;-61
2021/08/31 04:58:26;;;;;;;24.18;14.05;;;;;;;19.83;72.05;99566.63;1735113;82;21023;-60
2021/08/31 05:00:53;;;;;;;24.70;13.70;;;;;;;19.87;71.88;99568.98;1734780;82;21509;-60
2021/08/31 05:03:19;;;;;;;19.12;13.43;;;;;;;19.91;71.73;99567.84;1732842;82;21114;-61
2021/08/31 05:05:46;;;;;;;25.60;13.50;;;;;;;19.91;71.49;99571.36;1732497;82;21147;-61
2021/08/31 05:08:12;;;;;;;17.82;12.47;;;;;;;19.87;71.42;99566.27;1734771;82;20975;-61
2021/08/31 05:10:41;;;;;;;22.50;14.93;;;;;;;19.84;71.45;99561.99;1735283;82;20937;-60
2021/08/31 05:13:08;;;;;;;21.37;13.18;;;;;;;19.84;71.46;99571.51;1735027;82;20995;-61
2021/08/31 05:15:36;;;;;;;21.45;12.70;;;;;;;19.85;71.48;99571.77;1734479;82;21484;-60
2021/08/31 05:18:04;;;;;;;15.45;11.65;;;;;;;19.89;71.44;99574.13;1734246;82;21147;-61
2021/08/31 05:20:32;;;;;;;18.15;12.93;;;;;;;19.89;71.17;99570.05;1731748;82;20920;-60
2021/08/31 05:23:00;;;;;;;17.23;11.95;;;;;;;19.86;71.10;99573.36;1738662;82;20984;-62
2021/08/31 05:25:27;;;;;;;20.12;12.93;;;;;;;19.85;71.08;99577.21;1736477;82;21086;-62
2021/08/31 05:27:55;;;;;;;17.48;13.20;;;;;;;19.84;71.01;99574.23;1735015;82;20976;-61
2021/08/31 05:30:22;;;;;;;17.65;12.20;;;;;;;19.84;71.05;99576.38;1734728;82;21239;-61
2021/08/31 05:32:49;;;;;;;20.12;13.53;;;;;;;19.87;71.02;99576.34;1731880;82;21003;-61
2021/08/31 05:35:16;;;;;;;21.25;13.50;;;;;;;19.88;70.87;99574.69;1734033;82;21577;-62
2021/08/31 05:37:42;;;;;;;18.85;12.70;;;;;;;19.89;70.80;99578.20;1734986;82;21514;-60
2021/08/31 05:40:11;;;;;;;21.10;13.03;;;;;;;19.92;70.73;99578.96;1736242;82;21064;-61
2021/08/31 05:42:37;;;;;;;18.40;11.97;;;;;;;19.97;70.66;99576.73;1739440;82;21789;-62
2021/08/31 05:45:05;;;;;;;21.12;11.68;;;;;;;20.00;70.47;99569.33;1736595;82;20916;-60
2021/08/31 05:47:32;;;;;;;18.87;13.72;;;;;;;20.04;70.35;99576.58;1735321;82;20916;-62
2021/08/31 05:49:58;;;;;;;16.73;11.50;;;;;;;20.06;70.18;99574.91;1733630;82;21725;-62
2021/08/31 05:52:25;;;;;;;15.85;12.25;;;;;;;20.05;69.91;99571.94;1733937;82;20935;-62
2021/08/31 05:54:52;;;;;;;20.37;12.40;;;;;;;20.00;69.98;99571.48;1735644;82;21142;-61
2021/08/31 05:57:18;;;;;;;27.52;12.70;;;;;;;20.06;69.93;99572.20;1735564;82;21110;-61
2021/08/31 05:59:45;;;;;;;19.42;12.00;;;;;;;20.07;69.77;99573.82;1737489;82;21071;-61
2021/08/31 06:02:11;;;;;;;17.75;12.58;;;;;;;20.03;69.65;99577.67;1735070;82;20916;-61
2021/08/31 06:04:39;;;;;;;17.25;11.50;;;;;;;19.98;69.85;99572.34;1736071;82;20943;-61
2021/08/31 06:07:08;;;;;;;21.25;13.18;;;;;;;19.97;69.83;99571.28;1735050;82;21162;-62
2021/08/31 06:09:36;;;;;;;19.80;11.40;;;;;;;19.97;69.88;99578.09;1734642;82;20904;-61
2021/08/31 06:12:05;;;;;;;18.23;12.13;;;;;;;19.97;69.83;99578.09;1734382;82;20987;-62
2021/08/31 06:14:32;;;;;;;16.42;12.23;;;;;;;19.94;70.05;99583.00;1732292;82;20986;-61
2021/08/31 06:16:58;;;;;;;24.00;13.15;;;;;;;20.01;70.05;99583.16;1735409;82;21047;-62
2021/08/31 06:19:25;;;;;;;24.30;13.80;;;;;;;20.06;69.75;99586.59;1735908;82;21122;-62
2021/08/31 06:21:52;;;;;;;17.87;14.03;;;;;;;20.11;69.58;99591.13;1737052;82;20991;-61
2021/08/31 06:24:18;;;;;;;19.73;13.88;;;;;;;20.16;69.28;99592.97;1735055;82;21007;-61
2021/08/31 06:26:45;;;;;;;21.37;13.90;;;;;;;20.24;69.11;99597.70;1732770;81;21150;-61
2021/08/31 06:29:11;;;;;;;16.75;11.43;;;;;;;20.38;68.90;99600.45;1735671;82;20987;-61
2021/08/31 06:31:38;;;;;;;15.13;10.85;;;;;;;20.57;68.42;99605.22;1733065;81;21494;-61
2021/08/31 06:34:04;;;;;;;16.42;10.85;;;;;;;20.82;67.53;99602.55;1734182;82;20889;-60
2021/08/31 06:36:32;;;;;;;17.17;10.25;;;;;;;21.29;66.60;99608.33;1737073;82;20928;-62
2021/08/31 06:38:59;;;;;;;12.07;9.38;;;;;;;22.07;64.24;99612.19;1735241;82;21497;-61
2021/08/31 06:41:25;;;;;;;15.80;9.30;;;;;;;23.15;61.03;99609.73;1733879;82;20944;-61
2021/08/31 06:43:52;;;;;;;12.00;8.63;;;;;;;24.34;57.85;99610.73;1732246;81;21150;-62
2021/08/31 06:46:19;;;;;;;10.80;8.33;;;;;;;25.58;53.92;99619.23;1734267;82;20936;-62
2021/08/31 06:48:45;;;;;;;11.50;9.03;;;;;;;26.65;50.69;99622.63;1733647;82;20931;-60
2021/08/31 06:51:13;;;;;;;9.08;7.62;;;;;;;27.21;48.37;99620.05;1726887;82;21028;-62
2021/08/31 06:53:41;;;;;;;9.90;7.92;;;;;;;27.48;47.51;99624.56;1703514;83;21469;-63
2021/08/31 06:56:09;;;;;;;13.13;8.30;;;;;;;27.72;46.73;99626.39;1701345;83;21952;-62
2021/08/31 06:58:36;;;;;;;10.20;8.13;;;;;;;27.91;45.97;99626.30;1702629;83;22183;-61
2021/08/31 07:01:03;;;;;;;15.28;7.37;;;;;;;28.20;45.27;99630.63;1700633;83;20909;-63
2021/08/31 07:03:30;;;;;;;10.43;6.45;;;;;;;28.70;44.33;99629.69;1700713;83;21514;-61
2021/08/31 07:05:56;;;;;;;10.23;6.45;;;;;;;29.32;42.73;99627.12;1701829;83;20968;-63
2021/08/31 07:08:23;;;;;;;10.38;6.35;;;;;;;29.75;41.23;99636.82;1700645;83;21175;-63
2021/08/31 07:10:49;;;;;;;10.55;6.75;;;;;;;29.91;41.04;99635.37;1700302;83;21044;-62
2021/08/31 07:13:18;;;;;;;11.28;6.40;;;;;;;29.87;40.89;99631.74;1700243;83;21004;-61
2021/08/31 07:15:44;;;;;;;8.98;5.53;;;;;;;29.79;40.54;99634.14;1700813;83;20901;-61
2021/08/31 07:18:11;;;;;;;6.62;5.17;;;;;;;29.56;39.58;99623.05;1701783;83;21459;-61
2021/08/31 07:20:38;;;;;;;7.45;5.75;;;;;;;29.02;40.03;99640.66;1700229;83;21801;-62
2021/08/31 07:23:04;;;;;;;6.15;4.72;;;;;;;28.49;41.15;99640.40;1702313;83;20984;-62
2021/08/31 07:25:31;;;;;;;8.50;4.80;;;;;;;27.99;41.51;99650.73;1703262;83;21017;-64
2021/08/31 07:27:57;;;;;;;6.17;5.58;;;;;;;27.43;42.64;99653.14;1701463;83;21507;-61
2021/08/31 07:30:24;;;;;;;7.60;5.30;;;;;;;27.00;43.66;99651.84;1702000;83;21111;-62
2021/08/31 07:32:50;;;;;;;5.50;4.65;;;;;;;26.72;43.64;99651.73;1699993;83;21163;-61
2021/08/31 07:35:17;;;;;;;5.90;5.28;;;;;;;26.40;44.44;99654.24;1702467;83;21027;-62
2021/08/31 07:37:43;;;;;;;5.92;4.70;;;;;;;26.25;45.11;99642.53;1707237;83;21005;-62
2021/08/31 07:40:12;;;;;;;8.60;4.47;;;;;;;26.21;44.85;99657.53;1701261;83;21011;-61
2021/08/31 07:42:38;;;;;;;;;;;;;;;26.10;44.98;99654.98;1705061;83;20940;-61
2021/08/31 07:45:08;;;;;;;6.80;4.10;;;;;;;26.02;44.73;99656.11;1704428;83;21134;-61
2021/08/31 07:47:36;;;;;;;5.20;3.83;;;;;;;25.91;43.95;99644.49;1701793;83;20933;-62
2021/08/31 07:50:04;;;;;;;6.42;3.60;;;;;;;25.74;43.27;99654.52;1702172;83;28146;-62
2021/08/31 07:52:31;;;;;;;5.08;4.03;;;;;;;25.47;43.83;99647.09;1700274;83;20975;-61
2021/08/31 07:54:58;;;;;;;9.28;3.65;;;;;;;25.17;44.61;99654.54;1701561;83;21004;-63
2021/08/31 07:57:24;;;;;;;6.10;3.90;;;;;;;24.96;45.21;99650.42;1701293;83;21868;-61
2021/08/31 07:59:50;;;;;;;7.83;4.10;;;;;;;24.86;45.03;99647.48;1703470;83;20894;-63
2021/08/31 08:02:17;;;;;;;4.60;3.75;;;;;;;24.86;44.97;99649.43;1703378;83;20972;-62
2021/08/31 08:04:43;;;;;;;7.58;4.25;;;;;;;24.74;45.53;99658.36;1701662;83;21058;-61
2021/08/31 08:07:10;;;;;;;5.92;3.77;;;;;;;24.68;45.59;99651.47;1702673;83;21035;-63
2021/08/31 08:09:37;;;;;;;7.00;3.90;;;;;;;24.63;45.38;99653.80;1701873;83;21934;-61
2021/08/31 08:12:04;;;;;;;3.87;3.47;;;;;;;24.62;45.33;99655.75;1701716;83;21070;-61
2021/08/31 08:14:32;;;;;;;6.22;3.25;;;;;;;24.67;45.44;99654.76;1698655;83;20952;-63
2021/08/31 08:16:59;;;;;;;5.62;3.58;;;;;;;24.75;45.26;99653.10;1700414;83;21012;-62
2021/08/31 08:19:25;;;;;;;5.28;3.45;;;;;;;24.77;45.32;99649.48;1700116;83;21016;-62
2021/08/31 08:21:52;;;;;;;3.65;3.33;;;;;;;24.78;44.84;99649.73;1701254;83;21249;-62
2021/08/31 08:24:18;;;;;;;6.90;3.20;;;;;;;24.80;44.43;99644.13;1700622;83;21491;-61
2021/08/31 08:26:45;;;;;;;3.80;3.40;;;;;;;24.76;44.99;99646.49;1701810;83;20929;-61
2021/08/31 08:29:12;;;;;;;5.03;3.40;;;;;;;24.74;44.29;99655.63;1705916;83;21007;-61
2021/08/31 08:31:42;;;;;;;4.70;3.30;;;;;;;24.69;44.53;99655.80;1700746;83;21546;-61
2021/08/31 08:34:06;;;;;;;;;;;;;;;24.67;45.00;99662.98;1701889;82;21835;-61
2021/08/31 08:36:32;;;;;;;7.10;2.98;;;;;;;24.69;44.38;99664.02;1700053;83;20109;-62
2021/08/31 08:38:59;;;;;;;3.27;2.98;;;;;;;24.70;44.42;99670.53;1701331;83;21538;-62
2021/08/31 08:41:26;;;;;;;5.33;2.90;;;;;;;24.72;44.97;99664.17;1701920;83;20944;-61
2021/08/31 08:43:58;;;;;;;3.20;2.75;;;;;;;24.75;44.01;99664.88;1702823;83;20944;-61
2021/08/31 08:46:20;;;;;;;;;;;;;;;24.77;44.11;99665.92;1703804;83;21810;-61
2021/08/31 08:48:47;;;;;;;3.22;2.80;;;;;;;24.77;43.10;99668.09;1700689;83;20141;-61
2021/08/31 08:51:14;;;;;;;4.33;2.80;;;;;;;24.78;43.00;99666.96;1702321;83;20932;-61
2021/08/31 08:53:41;;;;;;;5.03;2.50;;;;;;;24.81;42.64;99671.78;1699971;82;22080;-61
2021/08/31 08:56:07;;;;;;;3.20;2.60;;;;;;;24.84;42.72;99664.84;1700085;83;20936;-61
2021/08/31 08:58:35;;;;;;;4.97;2.33;;;;;;;24.88;43.05;99663.59;1701502;83;21140;-61
2021/08/31 09:01:08;;;;;;;5.42;2.60;;;;;;;24.91;42.49;99667.86;1700458;83;20945;-61
2021/08/31 09:03:37;;;;;;;3.50;2.58;;;;;;;24.93;42.23;99664.79;1703711;83;20941;-61
2021/08/31 09:06:19;;;;;;;3.47;2.75;;;;;;;24.89;42.39;99667.38;1701717;83;20908;-61
2021/08/31 09:08:57;;;;;;;3.10;2.80;;;;;;;24.95;43.24;99667.98;1703749;83;20981;-61
2021/08/31 09:11:31;;;;;;;2.95;2.55;;;;;;;25.10;43.01;99674.83;1702001;83;21101;-61
2021/08/31 09:14:22;;;;;;;3.02;2.52;;;;;;;25.12;42.40;99676.11;1701514;83;21020;-60
2021/08/31 09:16:55;;;;;;;2.70;2.50;;;;;;;25.08;42.14;99670.26;1700837;83;21042;-61
2021/08/31 09:19:40;;;;;;;2.50;2.00;;;;;;;25.00;42.39;99671.92;1704869;83;21501;-63
2021/08/31 09:22:20;;;;;;;2.52;2.10;;;;;;;25.01;42.57;99682.56;1702843;83;20961;-61
2021/08/31 09:25:09;;;;;;;2.70;2.30;;;;;;;24.99;41.22;99671.10;1701655;83;21176;-62
2021/08/31 09:27:44;;;;;;;2.12;1.92;;;;;;;24.93;41.60;99668.33;1706264;83;21565;-62
2021/08/31 09:30:19;;;;;;;1.85;1.75;;;;;;;24.89;41.81;99669.33;1702017;83;21019;-62
2021/08/31 09:33:12;;;;;;;2.37;1.80;;;;;;;24.85;41.81;99680.13;1700526;83;20934;-62
2021/08/31 09:35:47;;;;;;;4.20;2.22;;;;;;;24.80;41.01;99677.59;1703473;83;21508;-61
2021/08/31 09:38:16;;;;;;;4.28;2.45;;;;;;;24.76;42.06;99678.80;1698391;83;21146;-62
2021/08/31 09:40:45;;;;;;;3.40;2.25;;;;;;;24.82;42.42;99676.13;1700697;83;20972;-61
2021/08/31 09:43:17;;;;;;;4.20;2.37;;;;;;;24.87;42.14;99654.58;1701616;83;21514;-62
2021/08/31 09:45:48;;;;;;;2.47;2.27;;;;;;;24.91;42.10;99671.16;1703545;83;20909;-61
2021/08/31 09:48:18;;;;;;;2.90;2.30;;;;;;;24.98;41.79;99672.80;1701693;83;20904;-61
2021/08/31 09:50:47;;;;;;;2.52;2.25;;;;;;;24.99;41.90;99679.91;1701021;83;21936;-61
2021/08/31 09:53:18;;;;;;;2.17;1.98;;;;;;;24.98;41.30;99675.00;1701500;83;21522;-62
2021/08/31 09:55:47;;;;;;;2.85;1.90;;;;;;;24.91;41.14;99666.49;1700952;83;21067;-61
2021/08/31 09:58:24;;;;;;;2.83;2.00;;;;;;;24.88;40.98;99660.31;1704576;83;21067;-61
2021/08/31 10:00:53;;;;;;;3.47;2.12;;;;;;;24.87;41.42;99675.69;1700994;83;21004;-62
2021/08/31 10:03:20;;;;;;;2.27;2.08;;;;;;;24.89;41.53;99660.52;1703908;83;21890;-61
2021/08/31 10:05:49;;;;;;;2.47;2.27;;;;;;;24.94;41.02;99667.75;1704218;83;21556;-61
2021/08/31 10:08:16;;;;;;;2.35;1.90;;;;;;;24.94;41.21;99663.63;1701198;83;21506;-62
2021/08/31 10:10:46;;;;;;;2.17;1.98;;;;;;;24.99;41.55;99670.31;1698826;83;21517;-61
2021/08/31 10:13:17;;;;;;;4.87;2.02;;;;;;;25.05;40.64;99673.09;1702475;83;20961;-61
2021/08/31 10:15:54;;;;;;;2.85;2.10;;;;;;;25.05;40.66;99675.03;1704732;83;21080;-62
2021/08/31 10:18:23;;;;;;;2.85;2.02;;;;;;;25.08;41.04;99671.63;1702328;83;21479;-61
2021/08/31 10:20:53;;;;;;;3.77;2.15;;;;;;;25.12;41.61;99671.20;1701937;83;20956;-61
2021/08/31 10:23:33;;;;;;;2.83;2.30;;;;;;;25.15;41.16;99674.65;1704664;83;20991;-61
2021/08/31 10:26:30;;;;;;;3.35;2.10;;;;;;;25.15;41.63;99676.81;1705343;83;22109;-61
2021/08/31 10:29:20;;;;;;;2.10;1.67;;;;;;;25.21;41.53;99684.28;1700730;83;21144;-61
2021/08/31 10:31:51;;;;;;;5.55;1.85;;;;;;;25.22;41.19;99690.01;1702738;83;20988;-62
2021/08/31 10:34:39;;;;;;;1.92;1.70;;;;;;;25.10;40.86;99689.36;1702072;83;21550;-61
2021/08/31 10:37:14;;;;;;;1.70;1.60;;;;;;;25.00;40.68;99680.15;1699229;82;21019;-61
2021/08/31 10:39:53;;;;;;;2.02;1.82;;;;;;;24.90;40.95;99695.03;1702732;83;20917;-62
2021/08/31 10:42:37;;;;;;;3.90;1.80;;;;;;;24.87;40.54;99700.34;1701532;83;21494;-62
2021/08/31 10:45:08;;;;;;;1.80;1.52;;;;;;;24.84;41.19;99697.73;1701200;83;21506;-61
2021/08/31 10:47:37;;;;;;;2.00;1.80;;;;;;;24.86;40.51;99700.92;1698347;83;22001;-62
2021/08/31 10:50:10;;;;;;;2.65;1.57;;;;;;;24.88;40.29;99695.94;1699388;83;21020;-60
2021/08/31 10:52:41;;;;;;;2.10;1.90;;;;;;;24.90;40.70;99705.20;1706694;83;20999;-61
2021/08/31 10:55:30;;;;;;;2.00;1.50;;;;;;;24.93;40.57;99698.48;1705236;83;21191;-61
2021/08/31 10:58:01;;;;;;;4.45;1.80;;;;;;;25.02;40.75;99708.02;1702035;83;21625;-61
2021/08/31 11:00:33;;;;;;;2.00;1.77;;;;;;;25.07;40.07;99710.56;1704145;83;21087;-64
2021/08/31 11:03:00;;;;;;;3.72;1.90;;;;;;;25.06;39.61;99710.34;1701724;83;20964;-61
2021/08/31 11:05:33;;;;;;;1.70;1.60;;;;;;;24.98;40.06;99703.78;1700153;83;21572;-62
2021/08/31 11:08:05;;;;;;;3.45;1.92;;;;;;;24.91;40.08;99712.27;1701743;83;21122;-59
2021/08/31 11:10:43;;;;;;;4.35;1.90;;;;;;;24.89;40.33;99713.97;1698539;83;21525;-62
2021/08/31 11:13:16;;;;;;;3.75;1.98;;;;;;;24.89;40.49;99713.97;1702232;83;21023;-62
2021/08/31 11:15:44;;;;;;;3.00;2.35;;;;;;;24.91;40.73;99710.89;1699055;83;21016;-62
2021/08/31 11:18:12;;;;;;;5.10;2.70;;;;;;;24.93;40.78;99709.44;1702332;83;21028;-62
2021/08/31 11:20:40;;;;;;;3.47;2.17;;;;;;;25.00;39.99;99706.19;1701906;83;21138;-62
2021/08/31 11:23:19;;;;;;;8.55;2.05;;;;;;;25.04;39.84;99713.97;1702014;83;21419;-61
2021/08/31 11:25:55;;;;;;;2.15;1.77;;;;;;;25.03;40.40;99715.67;1704164;83;21028;-64
2021/08/31 11:28:25;;;;;;;4.42;1.90;;;;;;;24.97;40.27;99718.61;1707639;83;20905;-62
2021/08/31 11:30:59;;;;;;;2.47;2.00;;;;;;;24.96;39.75;99707.98;1703143;83;20858;-62